sensor_id;sensor_type;location;lat;lon;timestamp;P1;durP1;ratioP1;P2;durP2;ratioP2
71236;SDS011;58984;51.960;5.582;2023-04-15T00:01:20;7.07;;;4.80;;
71236;SDS011;58984;51.960;5.582;2023-04-15T00:03:46;7.20;;;4.93;;
71236;SDS011;58984;51.960;5.582;2023-04-15T00:06:12;9.43;;;5.95;;
71236;SDS011;58984;51.960;5.582;2023-04-15T00:08:38;8.43;;;5.70;;
71236;SDS011;58984;51.960;5.582;2023-04-15T00:11:04;11.80;;;5.95;;
71236;SDS011;58984;51.960;5.582;2023-04-15T00:13:30;8.32;;;4.95;;
71236;SDS011;58984;51.960;5.582;2023-04-15T00:15:57;7.38;;;5.18;;
71236;SDS011;58984;51.960;5.582;2023-04-15T00:18:23;5.40;;;4.90;;
71236;SDS011;58984;51.960;5.582;2023-04-15T00:20:49;8.10;;;5.50;;
71236;SDS011;58984;51.960;5.582;2023-04-15T00:23:15;7.15;;;5.20;;
71236;SDS011;58984;51.960;5.582;2023-04-15T00:25:40;7.00;;;5.05;;
71236;SDS011;58984;51.960;5.582;2023-04-15T00:28:06;8.13;;;5.28;;
71236;SDS011;58984;51.960;5.582;2023-04-15T00:30:32;10.13;;;4.90;;
71236;SDS011;58984;51.960;5.582;2023-04-15T00:32:59;8.10;;;5.07;;
71236;SDS011;58984;51.960;5.582;2023-04-15T00:35:28;8.43;;;5.45;;
71236;SDS011;58984;51.960;5.582;2023-04-15T00:37:56;7.18;;;5.55;;
71236;SDS011;58984;51.960;5.582;2023-04-15T00:40:22;9.15;;;5.20;;
71236;SDS011;58984;51.960;5.582;2023-04-15T00:42:48;6.68;;;5.07;;
71236;SDS011;58984;51.960;5.582;2023-04-15T00:45:14;7.68;;;4.90;;
71236;SDS011;58984;51.960;5.582;2023-04-15T00:47:40;7.82;;;5.60;;
71236;SDS011;58984;51.960;5.582;2023-04-15T00:50:08;7.65;;;5.15;;
71236;SDS011;58984;51.960;5.582;2023-04-15T00:52:34;9.63;;;4.93;;
71236;SDS011;58984;51.960;5.582;2023-04-15T00:55:01;8.27;;;5.32;;
71236;SDS011;58984;51.960;5.582;2023-04-15T00:57:28;8.27;;;5.38;;
71236;SDS011;58984;51.960;5.582;2023-04-15T00:59:54;6.93;;;5.03;;
71236;SDS011;58984;51.960;5.582;2023-04-15T01:02:20;9.48;;;6.07;;
71236;SDS011;58984;51.960;5.582;2023-04-15T01:04:47;9.30;;;6.15;;
71236;SDS011;58984;51.960;5.582;2023-04-15T01:07:13;10.13;;;6.20;;
71236;SDS011;58984;51.960;5.582;2023-04-15T01:09:39;8.00;;;5.50;;
71236;SDS011;58984;51.960;5.582;2023-04-15T01:12:05;6.20;;;5.43;;
71236;SDS011;58984;51.960;5.582;2023-04-15T01:14:32;8.48;;;5.80;;
71236;SDS011;58984;51.960;5.582;2023-04-15T01:16:58;7.30;;;5.50;;
71236;SDS011;58984;51.960;5.582;2023-04-15T01:19:24;10.57;;;5.70;;
71236;SDS011;58984;51.960;5.582;2023-04-15T01:21:51;8.25;;;5.60;;
71236;SDS011;58984;51.960;5.582;2023-04-15T01:24:17;7.38;;;5.20;;
71236;SDS011;58984;51.960;5.582;2023-04-15T01:26:43;7.90;;;5.18;;
71236;SDS011;58984;51.960;5.582;2023-04-15T01:29:09;8.88;;;5.70;;
71236;SDS011;58984;51.960;5.582;2023-04-15T01:31:35;10.65;;;5.63;;
71236;SDS011;58984;51.960;5.582;2023-04-15T01:34:01;6.53;;;5.50;;
71236;SDS011;58984;51.960;5.582;2023-04-15T01:36:27;11.85;;;6.03;;
71236;SDS011;58984;51.960;5.582;2023-04-15T01:38:53;10.05;;;6.40;;
71236;SDS011;58984;51.960;5.582;2023-04-15T01:41:26;9.18;;;6.60;;
71236;SDS011;58984;51.960;5.582;2023-04-15T01:43:52;12.30;;;6.47;;
71236;SDS011;58984;51.960;5.582;2023-04-15T01:46:18;9.73;;;6.40;;
71236;SDS011;58984;51.960;5.582;2023-04-15T01:48:44;9.60;;;6.90;;
71236;SDS011;58984;51.960;5.582;2023-04-15T01:51:10;8.80;;;6.50;;
71236;SDS011;58984;51.960;5.582;2023-04-15T01:53:36;8.85;;;6.10;;
71236;SDS011;58984;51.960;5.582;2023-04-15T01:56:01;13.88;;;6.85;;
71236;SDS011;58984;51.960;5.582;2023-04-15T01:58:27;8.50;;;6.60;;
71236;SDS011;58984;51.960;5.582;2023-04-15T02:00:52;11.02;;;6.22;;
71236;SDS011;58984;51.960;5.582;2023-04-15T02:03:18;11.77;;;6.10;;
71236;SDS011;58984;51.960;5.582;2023-04-15T02:05:44;9.90;;;5.82;;
71236;SDS011;58984;51.960;5.582;2023-04-15T02:08:09;8.52;;;5.80;;
71236;SDS011;58984;51.960;5.582;2023-04-15T02:10:36;8.75;;;6.32;;
71236;SDS011;58984;51.960;5.582;2023-04-15T02:13:02;9.77;;;6.05;;
71236;SDS011;58984;51.960;5.582;2023-04-15T02:15:28;8.70;;;6.15;;
71236;SDS011;58984;51.960;5.582;2023-04-15T02:17:54;8.52;;;5.95;;
71236;SDS011;58984;51.960;5.582;2023-04-15T02:20:20;10.75;;;6.13;;
71236;SDS011;58984;51.960;5.582;2023-04-15T02:22:46;7.43;;;5.20;;
71236;SDS011;58984;51.960;5.582;2023-04-15T02:25:12;10.68;;;6.72;;
71236;SDS011;58984;51.960;5.582;2023-04-15T02:27:38;7.97;;;5.68;;
71236;SDS011;58984;51.960;5.582;2023-04-15T02:30:04;8.55;;;6.75;;
71236;SDS011;58984;51.960;5.582;2023-04-15T02:32:31;9.32;;;6.55;;
71236;SDS011;58984;51.960;5.582;2023-04-15T02:35:01;11.48;;;6.90;;
71236;SDS011;58984;51.960;5.582;2023-04-15T02:37:28;8.98;;;6.40;;
71236;SDS011;58984;51.960;5.582;2023-04-15T02:39:55;9.63;;;6.40;;
71236;SDS011;58984;51.960;5.582;2023-04-15T02:42:20;10.90;;;6.10;;
71236;SDS011;58984;51.960;5.582;2023-04-15T02:44:46;7.82;;;6.22;;
71236;SDS011;58984;51.960;5.582;2023-04-15T02:47:11;8.77;;;5.90;;
71236;SDS011;58984;51.960;5.582;2023-04-15T02:49:38;10.52;;;6.15;;
71236;SDS011;58984;51.960;5.582;2023-04-15T02:52:04;7.38;;;5.85;;
71236;SDS011;58984;51.960;5.582;2023-04-15T02:54:30;8.55;;;5.72;;
71236;SDS011;58984;51.960;5.582;2023-04-15T02:56:58;8.38;;;6.10;;
71236;SDS011;58984;51.960;5.582;2023-04-15T02:59:24;8.20;;;5.75;;
71236;SDS011;58984;51.960;5.582;2023-04-15T03:01:49;8.57;;;6.15;;
71236;SDS011;58984;51.960;5.582;2023-04-15T03:04:15;9.55;;;6.22;;
71236;SDS011;58984;51.960;5.582;2023-04-15T03:06:41;8.35;;;5.95;;
71236;SDS011;58984;51.960;5.582;2023-04-15T03:09:06;8.88;;;5.88;;
71236;SDS011;58984;51.960;5.582;2023-04-15T03:11:32;7.43;;;5.75;;
71236;SDS011;58984;51.960;5.582;2023-04-15T03:13:59;7.40;;;6.25;;
71236;SDS011;58984;51.960;5.582;2023-04-15T03:16:25;8.65;;;6.22;;
71236;SDS011;58984;51.960;5.582;2023-04-15T03:18:50;9.75;;;6.35;;
71236;SDS011;58984;51.960;5.582;2023-04-15T03:21:16;8.68;;;6.40;;
71236;SDS011;58984;51.960;5.582;2023-04-15T03:23:42;11.20;;;6.45;;
71236;SDS011;58984;51.960;5.582;2023-04-15T03:26:07;9.38;;;7.05;;
71236;SDS011;58984;51.960;5.582;2023-04-15T03:28:33;9.20;;;6.47;;
71236;SDS011;58984;51.960;5.582;2023-04-15T03:30:59;11.30;;;7.30;;
71236;SDS011;58984;51.960;5.582;2023-04-15T03:33:24;7.05;;;6.32;;
71236;SDS011;58984;51.960;5.582;2023-04-15T03:35:50;14.73;;;7.50;;
71236;SDS011;58984;51.960;5.582;2023-04-15T03:38:17;10.68;;;6.78;;
71236;SDS011;58984;51.960;5.582;2023-04-15T03:40:43;11.40;;;7.40;;
71236;SDS011;58984;51.960;5.582;2023-04-15T03:43:10;11.60;;;7.38;;
71236;SDS011;58984;51.960;5.582;2023-04-15T03:45:36;9.18;;;6.85;;
71236;SDS011;58984;51.960;5.582;2023-04-15T03:48:01;8.63;;;6.13;;
71236;SDS011;58984;51.960;5.582;2023-04-15T03:50:27;11.45;;;6.75;;
71236;SDS011;58984;51.960;5.582;2023-04-15T03:52:53;10.13;;;6.90;;
71236;SDS011;58984;51.960;5.582;2023-04-15T03:55:18;12.65;;;6.55;;
71236;SDS011;58984;51.960;5.582;2023-04-15T03:57:44;14.85;;;6.97;;
71236;SDS011;58984;51.960;5.582;2023-04-15T04:00:10;10.35;;;7.28;;
71236;SDS011;58984;51.960;5.582;2023-04-15T04:02:36;8.85;;;6.60;;
71236;SDS011;58984;51.960;5.582;2023-04-15T04:05:02;8.13;;;6.68;;
71236;SDS011;58984;51.960;5.582;2023-04-15T04:07:28;10.50;;;7.35;;
71236;SDS011;58984;51.960;5.582;2023-04-15T04:09:55;11.15;;;6.72;;
71236;SDS011;58984;51.960;5.582;2023-04-15T04:12:21;11.90;;;7.43;;
71236;SDS011;58984;51.960;5.582;2023-04-15T04:14:47;14.60;;;8.60;;
71236;SDS011;58984;51.960;5.582;2023-04-15T04:17:12;13.27;;;7.93;;
71236;SDS011;58984;51.960;5.582;2023-04-15T04:19:38;13.60;;;8.20;;
71236;SDS011;58984;51.960;5.582;2023-04-15T04:22:03;11.88;;;8.10;;
71236;SDS011;58984;51.960;5.582;2023-04-15T04:24:29;14.32;;;8.20;;
71236;SDS011;58984;51.960;5.582;2023-04-15T04:26:55;15.38;;;8.68;;
71236;SDS011;58984;51.960;5.582;2023-04-15T04:29:21;10.05;;;8.43;;
71236;SDS011;58984;51.960;5.582;2023-04-15T04:31:47;14.80;;;8.63;;
71236;SDS011;58984;51.960;5.582;2023-04-15T04:34:13;12.15;;;8.85;;
71236;SDS011;58984;51.960;5.582;2023-04-15T04:36:39;15.45;;;9.68;;
71236;SDS011;58984;51.960;5.582;2023-04-15T04:39:04;15.35;;;8.98;;
71236;SDS011;58984;51.960;5.582;2023-04-15T04:41:30;13.80;;;9.68;;
71236;SDS011;58984;51.960;5.582;2023-04-15T04:43:56;11.27;;;8.57;;
71236;SDS011;58984;51.960;5.582;2023-04-15T04:46:22;13.55;;;9.73;;
71236;SDS011;58984;51.960;5.582;2023-04-15T04:48:47;17.85;;;10.38;;
71236;SDS011;58984;51.960;5.582;2023-04-15T04:51:13;14.63;;;9.10;;
71236;SDS011;58984;51.960;5.582;2023-04-15T04:53:39;13.95;;;8.77;;
71236;SDS011;58984;51.960;5.582;2023-04-15T04:56:06;17.83;;;9.68;;
71236;SDS011;58984;51.960;5.582;2023-04-15T04:58:32;14.90;;;10.02;;
71236;SDS011;58984;51.960;5.582;2023-04-15T05:00:58;17.02;;;9.95;;
71236;SDS011;58984;51.960;5.582;2023-04-15T05:03:23;16.92;;;10.23;;
71236;SDS011;58984;51.960;5.582;2023-04-15T05:05:49;14.52;;;9.73;;
71236;SDS011;58984;51.960;5.582;2023-04-15T05:08:15;16.30;;;10.00;;
71236;SDS011;58984;51.960;5.582;2023-04-15T05:10:40;14.43;;;9.30;;
71236;SDS011;58984;51.960;5.582;2023-04-15T05:13:06;13.10;;;9.40;;
71236;SDS011;58984;51.960;5.582;2023-04-15T05:15:32;14.30;;;9.68;;
71236;SDS011;58984;51.960;5.582;2023-04-15T05:17:58;14.23;;;9.50;;
71236;SDS011;58984;51.960;5.582;2023-04-15T05:20:24;16.75;;;9.18;;
71236;SDS011;58984;51.960;5.582;2023-04-15T05:22:50;12.82;;;8.32;;
71236;SDS011;58984;51.960;5.582;2023-04-15T05:25:16;16.17;;;9.30;;
71236;SDS011;58984;51.960;5.582;2023-04-15T05:27:41;13.82;;;8.85;;
71236;SDS011;58984;51.960;5.582;2023-04-15T05:30:07;14.38;;;8.85;;
71236;SDS011;58984;51.960;5.582;2023-04-15T05:32:33;11.43;;;8.35;;
71236;SDS011;58984;51.960;5.582;2023-04-15T05:34:59;12.27;;;8.23;;
71236;SDS011;58984;51.960;5.582;2023-04-15T05:37:25;12.07;;;7.50;;
71236;SDS011;58984;51.960;5.582;2023-04-15T05:39:50;11.40;;;8.43;;
71236;SDS011;58984;51.960;5.582;2023-04-15T05:42:16;10.48;;;7.25;;
71236;SDS011;58984;51.960;5.582;2023-04-15T05:44:42;9.85;;;7.38;;
71236;SDS011;58984;51.960;5.582;2023-04-15T05:47:07;12.80;;;7.88;;
71236;SDS011;58984;51.960;5.582;2023-04-15T05:49:34;11.63;;;8.27;;
71236;SDS011;58984;51.960;5.582;2023-04-15T05:52:00;11.20;;;7.95;;
71236;SDS011;58984;51.960;5.582;2023-04-15T05:54:26;10.20;;;7.75;;
71236;SDS011;58984;51.960;5.582;2023-04-15T05:56:52;12.85;;;8.73;;
71236;SDS011;58984;51.960;5.582;2023-04-15T05:59:17;16.63;;;8.88;;
71236;SDS011;58984;51.960;5.582;2023-04-15T06:01:43;13.30;;;8.02;;
71236;SDS011;58984;51.960;5.582;2023-04-15T06:04:09;12.55;;;8.15;;
71236;SDS011;58984;51.960;5.582;2023-04-15T06:06:35;11.90;;;8.10;;
71236;SDS011;58984;51.960;5.582;2023-04-15T06:09:02;12.77;;;8.27;;
71236;SDS011;58984;51.960;5.582;2023-04-15T06:11:28;13.52;;;8.35;;
71236;SDS011;58984;51.960;5.582;2023-04-15T06:13:53;16.23;;;8.23;;
71236;SDS011;58984;51.960;5.582;2023-04-15T06:16:19;12.77;;;8.40;;
71236;SDS011;58984;51.960;5.582;2023-04-15T06:18:45;12.15;;;8.38;;
71236;SDS011;58984;51.960;5.582;2023-04-15T06:21:10;12.55;;;8.65;;
71236;SDS011;58984;51.960;5.582;2023-04-15T06:23:36;14.85;;;9.10;;
71236;SDS011;58984;51.960;5.582;2023-04-15T06:26:02;12.63;;;8.07;;
71236;SDS011;58984;51.960;5.582;2023-04-15T06:28:27;10.55;;;7.78;;
71236;SDS011;58984;51.960;5.582;2023-04-15T06:30:53;13.90;;;7.68;;
71236;SDS011;58984;51.960;5.582;2023-04-15T06:33:19;12.45;;;7.47;;
71236;SDS011;58984;51.960;5.582;2023-04-15T06:35:45;12.23;;;7.85;;
71236;SDS011;58984;51.960;5.582;2023-04-15T06:38:11;10.13;;;7.95;;
71236;SDS011;58984;51.960;5.582;2023-04-15T06:40:37;15.13;;;7.50;;
71236;SDS011;58984;51.960;5.582;2023-04-15T06:43:02;11.82;;;7.13;;
71236;SDS011;58984;51.960;5.582;2023-04-15T06:45:29;9.38;;;7.20;;
71236;SDS011;58984;51.960;5.582;2023-04-15T06:47:55;11.20;;;6.90;;
71236;SDS011;58984;51.960;5.582;2023-04-15T06:50:20;11.27;;;7.32;;
71236;SDS011;58984;51.960;5.582;2023-04-15T06:52:46;12.25;;;7.32;;
71236;SDS011;58984;51.960;5.582;2023-04-15T06:55:11;12.52;;;7.53;;
71236;SDS011;58984;51.960;5.582;2023-04-15T06:57:37;10.25;;;7.03;;
71236;SDS011;58984;51.960;5.582;2023-04-15T07:00:03;10.60;;;6.90;;
71236;SDS011;58984;51.960;5.582;2023-04-15T07:02:29;10.65;;;6.55;;
71236;SDS011;58984;51.960;5.582;2023-04-15T07:04:55;11.38;;;6.60;;
71236;SDS011;58984;51.960;5.582;2023-04-15T07:07:21;10.18;;;7.00;;
71236;SDS011;58984;51.960;5.582;2023-04-15T07:09:46;11.63;;;6.57;;
71236;SDS011;58984;51.960;5.582;2023-04-15T07:12:12;9.80;;;6.97;;
71236;SDS011;58984;51.960;5.582;2023-04-15T07:14:37;7.57;;;5.95;;
71236;SDS011;58984;51.960;5.582;2023-04-15T07:17:03;7.03;;;5.90;;
71236;SDS011;58984;51.960;5.582;2023-04-15T07:19:29;8.50;;;6.28;;
71236;SDS011;58984;51.960;5.582;2023-04-15T07:21:55;9.35;;;5.63;;
71236;SDS011;58984;51.960;5.582;2023-04-15T07:24:20;12.50;;;5.88;;
71236;SDS011;58984;51.960;5.582;2023-04-15T07:26:50;11.23;;;6.28;;
71236;SDS011;58984;51.960;5.582;2023-04-15T07:29:17;10.07;;;5.22;;
71236;SDS011;58984;51.960;5.582;2023-04-15T07:31:43;8.93;;;5.50;;
71236;SDS011;58984;51.960;5.582;2023-04-15T07:34:08;7.20;;;5.05;;
71236;SDS011;58984;51.960;5.582;2023-04-15T07:36:34;7.47;;;5.50;;
71236;SDS011;58984;51.960;5.582;2023-04-15T07:39:00;9.65;;;5.30;;
71236;SDS011;58984;51.960;5.582;2023-04-15T07:41:28;7.40;;;4.95;;
71236;SDS011;58984;51.960;5.582;2023-04-15T07:43:54;10.15;;;5.47;;
71236;SDS011;58984;51.960;5.582;2023-04-15T07:46:20;5.82;;;4.60;;
71236;SDS011;58984;51.960;5.582;2023-04-15T07:48:47;7.25;;;4.93;;
71236;SDS011;58984;51.960;5.582;2023-04-15T07:51:13;6.50;;;4.70;;
71236;SDS011;58984;51.960;5.582;2023-04-15T07:53:39;6.03;;;4.15;;
71236;SDS011;58984;51.960;5.582;2023-04-15T07:56:04;5.80;;;4.57;;
71236;SDS011;58984;51.960;5.582;2023-04-15T07:58:30;8.05;;;4.30;;
71236;SDS011;58984;51.960;5.582;2023-04-15T08:00:56;8.05;;;4.78;;
71236;SDS011;58984;51.960;5.582;2023-04-15T08:03:22;5.25;;;4.60;;
71236;SDS011;58984;51.960;5.582;2023-04-15T08:05:49;6.63;;;4.43;;
71236;SDS011;58984;51.960;5.582;2023-04-15T08:08:14;7.32;;;4.28;;
71236;SDS011;58984;51.960;5.582;2023-04-15T08:10:40;5.20;;;3.92;;
71236;SDS011;58984;51.960;5.582;2023-04-15T08:13:06;6.05;;;4.00;;
71236;SDS011;58984;51.960;5.582;2023-04-15T08:15:32;6.18;;;4.00;;
71236;SDS011;58984;51.960;5.582;2023-04-15T08:17:57;6.75;;;4.35;;
71236;SDS011;58984;51.960;5.582;2023-04-15T08:20:24;5.18;;;4.05;;
71236;SDS011;58984;51.960;5.582;2023-04-15T08:22:50;5.75;;;3.60;;
71236;SDS011;58984;51.960;5.582;2023-04-15T08:25:16;6.10;;;4.15;;
71236;SDS011;58984;51.960;5.582;2023-04-15T08:27:43;5.72;;;3.80;;
71236;SDS011;58984;51.960;5.582;2023-04-15T08:30:09;3.67;;;3.20;;
71236;SDS011;58984;51.960;5.582;2023-04-15T08:32:35;6.25;;;3.90;;
71236;SDS011;58984;51.960;5.582;2023-04-15T08:35:01;9.40;;;3.75;;
71236;SDS011;58984;51.960;5.582;2023-04-15T08:37:27;5.63;;;3.67;;
71236;SDS011;58984;51.960;5.582;2023-04-15T08:39:53;5.70;;;3.88;;
71236;SDS011;58984;51.960;5.582;2023-04-15T08:42:22;5.32;;;3.67;;
71236;SDS011;58984;51.960;5.582;2023-04-15T08:44:52;5.13;;;3.80;;
71236;SDS011;58984;51.960;5.582;2023-04-15T08:47:19;5.63;;;3.95;;
71236;SDS011;58984;51.960;5.582;2023-04-15T08:49:48;5.70;;;3.85;;
71236;SDS011;58984;51.960;5.582;2023-04-15T08:52:18;5.68;;;3.88;;
71236;SDS011;58984;51.960;5.582;2023-04-15T08:54:44;6.78;;;4.20;;
71236;SDS011;58984;51.960;5.582;2023-04-15T08:57:09;5.43;;;3.67;;
71236;SDS011;58984;51.960;5.582;2023-04-15T08:59:36;6.38;;;3.55;;
71236;SDS011;58984;51.960;5.582;2023-04-15T09:02:02;5.85;;;3.80;;
71236;SDS011;58984;51.960;5.582;2023-04-15T09:04:28;6.10;;;3.72;;
71236;SDS011;58984;51.960;5.582;2023-04-15T09:06:54;5.65;;;3.70;;
71236;SDS011;58984;51.960;5.582;2023-04-15T09:09:21;5.32;;;3.50;;
71236;SDS011;58984;51.960;5.582;2023-04-15T09:11:46;4.93;;;3.40;;
71236;SDS011;58984;51.960;5.582;2023-04-15T09:14:14;4.75;;;3.65;;
71236;SDS011;58984;51.960;5.582;2023-04-15T09:16:54;8.73;;;3.85;;
71236;SDS011;58984;51.960;5.582;2023-04-15T09:19:22;4.60;;;3.55;;
71236;SDS011;58984;51.960;5.582;2023-04-15T09:21:54;5.75;;;3.33;;
71236;SDS011;58984;51.960;5.582;2023-04-15T09:24:21;4.88;;;3.45;;
71236;SDS011;58984;51.960;5.582;2023-04-15T09:26:47;5.65;;;3.15;;
71236;SDS011;58984;51.960;5.582;2023-04-15T09:29:18;7.10;;;3.38;;
71236;SDS011;58984;51.960;5.582;2023-04-15T09:31:43;4.35;;;2.90;;
71236;SDS011;58984;51.960;5.582;2023-04-15T09:34:09;5.90;;;3.30;;
71236;SDS011;58984;51.960;5.582;2023-04-15T09:39:17;3.35;;;3.05;;
71236;SDS011;58984;51.960;5.582;2023-04-15T09:41:43;4.38;;;2.70;;
71236;SDS011;58984;51.960;5.582;2023-04-15T09:44:22;4.45;;;2.40;;
71236;SDS011;58984;51.960;5.582;2023-04-15T09:46:49;4.03;;;2.60;;
71236;SDS011;58984;51.960;5.582;2023-04-15T09:49:14;6.43;;;2.78;;
71236;SDS011;58984;51.960;5.582;2023-04-15T09:51:41;3.20;;;2.70;;
71236;SDS011;58984;51.960;5.582;2023-04-15T09:54:08;3.90;;;2.70;;
71236;SDS011;58984;51.960;5.582;2023-04-15T09:56:34;5.05;;;2.30;;
71236;SDS011;58984;51.960;5.582;2023-04-15T09:59:05;2.97;;;2.40;;
71236;SDS011;58984;51.960;5.582;2023-04-15T10:01:31;3.60;;;2.50;;
71236;SDS011;58984;51.960;5.582;2023-04-15T10:03:57;2.53;;;1.90;;
71236;SDS011;58984;51.960;5.582;2023-04-15T10:06:26;5.10;;;2.67;;
71236;SDS011;58984;51.960;5.582;2023-04-15T10:08:53;6.70;;;2.58;;
71236;SDS011;58984;51.960;5.582;2023-04-15T10:11:20;5.70;;;3.03;;
71236;SDS011;58984;51.960;5.582;2023-04-15T10:13:48;3.50;;;2.35;;
71236;SDS011;58984;51.960;5.582;2023-04-15T10:16:15;3.72;;;2.10;;
71236;SDS011;58984;51.960;5.582;2023-04-15T10:18:44;2.17;;;1.98;;
71236;SDS011;58984;51.960;5.582;2023-04-15T10:21:12;2.25;;;1.83;;
71236;SDS011;58984;51.960;5.582;2023-04-15T10:23:40;3.58;;;2.20;;
71236;SDS011;58984;51.960;5.582;2023-04-15T10:26:06;4.97;;;2.15;;
71236;SDS011;58984;51.960;5.582;2023-04-15T10:28:33;3.92;;;2.47;;
71236;SDS011;58984;51.960;5.582;2023-04-15T10:30:59;5.20;;;2.13;;
71236;SDS011;58984;51.960;5.582;2023-04-15T10:33:25;2.92;;;2.15;;
71236;SDS011;58984;51.960;5.582;2023-04-15T10:35:53;4.32;;;2.17;;
71236;SDS011;58984;51.960;5.582;2023-04-15T10:38:39;3.25;;;2.22;;
71236;SDS011;58984;51.960;5.582;2023-04-15T10:41:19;3.33;;;2.03;;
71236;SDS011;58984;51.960;5.582;2023-04-15T10:46:37;2.58;;;2.20;;
71236;SDS011;58984;51.960;5.582;2023-04-15T10:49:07;3.38;;;2.33;;
71236;SDS011;58984;51.960;5.582;2023-04-15T10:51:41;4.78;;;2.05;;
71236;SDS011;58984;51.960;5.582;2023-04-15T10:59:30;2.33;;;1.95;;
71236;SDS011;58984;51.960;5.582;2023-04-15T11:01:59;2.75;;;1.67;;
71236;SDS011;58984;51.960;5.582;2023-04-15T11:07:33;3.03;;;1.98;;
71236;SDS011;58984;51.960;5.582;2023-04-15T11:12:42;3.30;;;2.17;;
71236;SDS011;58984;51.960;5.582;2023-04-15T11:20:36;3.17;;;2.13;;
71236;SDS011;58984;51.960;5.582;2023-04-15T11:23:03;2.70;;;1.90;;
71236;SDS011;58984;51.960;5.582;2023-04-15T11:25:30;2.83;;;2.17;;
71236;SDS011;58984;51.960;5.582;2023-04-15T11:27:57;3.28;;;1.95;;
71236;SDS011;58984;51.960;5.582;2023-04-15T11:30:24;4.78;;;1.90;;
71236;SDS011;58984;51.960;5.582;2023-04-15T11:32:59;3.42;;;1.80;;
71236;SDS011;58984;51.960;5.582;2023-04-15T11:35:26;2.97;;;1.80;;
71236;SDS011;58984;51.960;5.582;2023-04-15T11:37:52;2.72;;;1.85;;
71236;SDS011;58984;51.960;5.582;2023-04-15T11:40:22;2.22;;;1.60;;
71236;SDS011;58984;51.960;5.582;2023-04-15T11:45:47;2.42;;;1.67;;
71236;SDS011;58984;51.960;5.582;2023-04-15T11:48:27;1.65;;;1.50;;
71236;SDS011;58984;51.960;5.582;2023-04-15T11:50:58;2.83;;;1.58;;
71236;SDS011;58984;51.960;5.582;2023-04-15T11:53:36;1.65;;;1.50;;
71236;SDS011;58984;51.960;5.582;2023-04-15T11:56:02;2.10;;;1.63;;
71236;SDS011;58984;51.960;5.582;2023-04-15T11:58:28;2.03;;;1.80;;
71236;SDS011;58984;51.960;5.582;2023-04-15T12:00:56;2.78;;;1.73;;
71236;SDS011;58984;51.960;5.582;2023-04-15T12:03:57;4.68;;;1.42;;
71236;SDS011;58984;51.960;5.582;2023-04-15T12:06:22;1.67;;;1.52;;
71236;SDS011;58984;51.960;5.582;2023-04-15T12:08:56;1.60;;;1.50;;
71236;SDS011;58984;51.960;5.582;2023-04-15T12:16:32;1.77;;;1.40;;
71236;SDS011;58984;51.960;5.582;2023-04-15T12:18:59;2.20;;;1.50;;
71236;SDS011;58984;51.960;5.582;2023-04-15T12:21:32;1.95;;;1.48;;
71236;SDS011;58984;51.960;5.582;2023-04-15T12:24:01;2.63;;;1.65;;
71236;SDS011;58984;51.960;5.582;2023-04-15T12:26:30;1.90;;;1.50;;
71236;SDS011;58984;51.960;5.582;2023-04-15T12:29:00;2.33;;;1.50;;
71236;SDS011;58984;51.960;5.582;2023-04-15T12:31:28;1.90;;;1.65;;
71236;SDS011;58984;51.960;5.582;2023-04-15T12:33:55;2.08;;;1.50;;
71236;SDS011;58984;51.960;5.582;2023-04-15T12:36:21;1.88;;;1.48;;
71236;SDS011;58984;51.960;5.582;2023-04-15T12:38:47;2.05;;;1.60;;
71236;SDS011;58984;51.960;5.582;2023-04-15T12:41:13;3.08;;;1.63;;
71236;SDS011;58984;51.960;5.582;2023-04-15T12:43:39;2.17;;;1.40;;
71236;SDS011;58984;51.960;5.582;2023-04-15T12:46:04;2.10;;;1.52;;
71236;SDS011;58984;51.960;5.582;2023-04-15T12:48:32;3.83;;;1.63;;
71236;SDS011;58984;51.960;5.582;2023-04-15T12:50:58;1.98;;;1.20;;
71236;SDS011;58984;51.960;5.582;2023-04-15T12:53:24;2.33;;;1.40;;
71236;SDS011;58984;51.960;5.582;2023-04-15T12:55:50;1.77;;;1.25;;
71236;SDS011;58984;51.960;5.582;2023-04-15T12:58:16;1.60;;;1.30;;
71236;SDS011;58984;51.960;5.582;2023-04-15T13:00:41;2.35;;;1.33;;
71236;SDS011;58984;51.960;5.582;2023-04-15T13:03:07;1.55;;;1.23;;
71236;SDS011;58984;51.960;5.582;2023-04-15T13:05:33;1.40;;;1.20;;
71236;SDS011;58984;51.960;5.582;2023-04-15T13:08:00;2.30;;;1.30;;
71236;SDS011;58984;51.960;5.582;2023-04-15T13:10:27;2.20;;;1.35;;
71236;SDS011;58984;51.960;5.582;2023-04-15T13:12:53;1.30;;;1.15;;
71236;SDS011;58984;51.960;5.582;2023-04-15T13:15:20;2.38;;;1.20;;
71236;SDS011;58984;51.960;5.582;2023-04-15T13:17:46;1.30;;;1.10;;
71236;SDS011;58984;51.960;5.582;2023-04-15T13:20:12;2.83;;;1.45;;
71236;SDS011;58984;51.960;5.582;2023-04-15T13:22:38;3.70;;;1.58;;
71236;SDS011;58984;51.960;5.582;2023-04-15T13:25:04;1.55;;;1.30;;
71236;SDS011;58984;51.960;5.582;2023-04-15T13:27:31;2.55;;;1.20;;
71236;SDS011;58984;51.960;5.582;2023-04-15T13:29:57;1.40;;;1.15;;
71236;SDS011;58984;51.960;5.582;2023-04-15T13:32:23;2.50;;;1.30;;
71236;SDS011;58984;51.960;5.582;2023-04-15T13:34:50;2.28;;;1.40;;
71236;SDS011;58984;51.960;5.582;2023-04-15T13:37:15;1.95;;;1.35;;
71236;SDS011;58984;51.960;5.582;2023-04-15T13:39:41;1.60;;;1.33;;
71236;SDS011;58984;51.960;5.582;2023-04-15T13:42:07;3.22;;;1.70;;
71236;SDS011;58984;51.960;5.582;2023-04-15T13:44:32;1.75;;;1.30;;
71236;SDS011;58984;51.960;5.582;2023-04-15T13:46:58;2.20;;;1.55;;
71236;SDS011;58984;51.960;5.582;2023-04-15T13:49:24;1.67;;;1.33;;
71236;SDS011;58984;51.960;5.582;2023-04-15T13:51:50;1.65;;;1.38;;
71236;SDS011;58984;51.960;5.582;2023-04-15T13:54:16;1.52;;;1.23;;
71236;SDS011;58984;51.960;5.582;2023-04-15T13:56:41;1.67;;;1.58;;
71236;SDS011;58984;51.960;5.582;2023-04-15T13:59:07;2.10;;;1.13;;
71236;SDS011;58984;51.960;5.582;2023-04-15T14:01:33;3.03;;;1.10;;
71236;SDS011;58984;51.960;5.582;2023-04-15T14:03:59;2.63;;;1.40;;
71236;SDS011;58984;51.960;5.582;2023-04-15T14:06:25;1.20;;;1.10;;
71236;SDS011;58984;51.960;5.582;2023-04-15T14:08:52;2.63;;;1.25;;
71236;SDS011;58984;51.960;5.582;2023-04-15T14:11:17;1.58;;;1.20;;
71236;SDS011;58984;51.960;5.582;2023-04-15T14:13:43;2.38;;;1.48;;
71236;SDS011;58984;51.960;5.582;2023-04-15T14:16:08;2.05;;;1.52;;
71236;SDS011;58984;51.960;5.582;2023-04-15T14:18:34;3.22;;;1.70;;
71236;SDS011;58984;51.960;5.582;2023-04-15T14:21:01;2.28;;;1.40;;
71236;SDS011;58984;51.960;5.582;2023-04-15T14:23:27;2.80;;;1.40;;
71236;SDS011;58984;51.960;5.582;2023-04-15T14:25:53;1.88;;;1.73;;
71236;SDS011;58984;51.960;5.582;2023-04-15T14:28:18;1.58;;;1.35;;
71236;SDS011;58984;51.960;5.582;2023-04-15T14:30:44;1.77;;;1.30;;
71236;SDS011;58984;51.960;5.582;2023-04-15T14:33:10;2.95;;;1.85;;
71236;SDS011;58984;51.960;5.582;2023-04-15T14:35:36;3.25;;;1.40;;
71236;SDS011;58984;51.960;5.582;2023-04-15T14:38:02;4.70;;;1.50;;
71236;SDS011;58984;51.960;5.582;2023-04-15T14:40:27;3.97;;;1.77;;
71236;SDS011;58984;51.960;5.582;2023-04-15T14:42:53;13.60;;;3.28;;
71236;SDS011;58984;51.960;5.582;2023-04-15T14:45:18;15.60;;;2.95;;
71236;SDS011;58984;51.960;5.582;2023-04-15T14:47:44;8.32;;;2.40;;
71236;SDS011;58984;51.960;5.582;2023-04-15T14:50:10;7.05;;;2.38;;
71236;SDS011;58984;51.960;5.582;2023-04-15T14:52:36;8.50;;;2.20;;
71236;SDS011;58984;51.960;5.582;2023-04-15T14:55:05;4.28;;;1.55;;
71236;SDS011;58984;51.960;5.582;2023-04-15T14:57:31;4.60;;;1.95;;
71236;SDS011;58984;51.960;5.582;2023-04-15T14:59:57;3.63;;;2.47;;
71236;SDS011;58984;51.960;5.582;2023-04-15T15:02:23;10.68;;;2.63;;
71236;SDS011;58984;51.960;5.582;2023-04-15T15:04:49;18.77;;;3.75;;
71236;SDS011;58984;51.960;5.582;2023-04-15T15:07:14;9.15;;;3.67;;
71236;SDS011;58984;51.960;5.582;2023-04-15T15:09:40;8.60;;;3.08;;